createdAt,value
2023-02-12T00:01:16.637Z,32.43
2023-02-12T00:03:43.710Z,33.30
2023-02-12T00:06:13.533Z,34.30
2023-02-12T00:08:41.742Z,32.83
2023-02-12T00:11:17.181Z,32.00
2023-02-12T00:13:44.088Z,31.17
2023-02-12T00:16:14.490Z,30.00
2023-02-12T00:18:41.471Z,30.57
2023-02-12T00:21:08.887Z,31.10
2023-02-12T00:23:37.436Z,30.90
2023-02-12T00:26:09.413Z,28.60
2023-02-12T00:28:36.661Z,29.27
2023-02-12T00:31:12.895Z,29.70
2023-02-12T00:33:40.142Z,28.03
2023-02-12T00:36:07.308Z,28.83
2023-02-12T00:38:34.569Z,29.80
2023-02-12T00:41:01.658Z,30.27
2023-02-12T00:43:28.364Z,30.17
2023-02-12T00:45:55.508Z,30.63
2023-02-12T00:48:22.521Z,29.17
2023-02-12T00:50:50.457Z,29.83
2023-02-12T00:53:17.313Z,30.87
2023-02-12T00:55:44.019Z,28.70
2023-02-12T00:58:11.029Z,29.30
2023-02-12T01:00:37.986Z,29.13
2023-02-12T01:03:05.615Z,29.77
2023-02-12T01:05:33.041Z,30.60
2023-02-12T01:08:00.093Z,29.10
2023-02-12T01:10:27.506Z,27.70
2023-02-12T01:12:55.029Z,28.43
2023-02-12T01:15:22.380Z,29.23
2023-02-12T01:17:52.572Z,29.07
2023-02-12T01:20:21.558Z,30.47
2023-02-12T01:22:48.375Z,28.97
2023-02-12T01:25:15.194Z,29.73
2023-02-12T01:27:41.868Z,30.20
2023-02-12T01:30:11.387Z,28.37
2023-02-12T01:32:38.287Z,28.37
2023-02-12T01:35:05.896Z,27.87
2023-02-12T01:37:35.990Z,27.83
2023-02-12T01:40:03.357Z,29.53
2023-02-12T01:42:30.101Z,29.10
2023-02-12T01:45:14.845Z,26.57
2023-02-12T01:47:45.353Z,28.03
2023-02-12T01:50:18.732Z,30.73
2023-02-12T01:52:53.151Z,28.23
2023-02-12T01:55:20.423Z,27.37
2023-02-12T01:57:48.769Z,27.93
2023-02-12T02:00:21.080Z,28.40
2023-02-12T02:02:54.813Z,26.60
2023-02-12T02:05:43.715Z,27.57
2023-02-12T02:08:11.200Z,27.80
2023-02-12T02:10:38.135Z,26.00
2023-02-12T02:13:23.418Z,27.00
2023-02-12T02:15:54.909Z,26.23
2023-02-12T02:18:47.856Z,26.30
2023-02-12T02:21:55.032Z,28.60
2023-02-12T02:24:52.897Z,27.73
2023-02-12T02:27:29.160Z,27.73
2023-02-12T02:30:22.035Z,28.20
2023-02-12T02:32:54.309Z,26.13
2023-02-12T02:35:34.102Z,27.00
2023-02-12T02:38:22.343Z,26.53
2023-02-12T02:41:28.685Z,26.57
2023-02-12T02:43:56.189Z,27.00
2023-02-12T02:46:47.913Z,27.33
2023-02-12T02:49:27.791Z,25.80
2023-02-12T02:52:01.390Z,25.30
2023-02-12T02:54:37.653Z,26.90
2023-02-12T02:57:17.709Z,25.57
2023-02-12T02:59:49.253Z,27.03
2023-02-12T03:02:21.321Z,27.33
2023-02-12T03:04:55.396Z,26.00
2023-02-12T03:07:28.859Z,27.20
2023-02-12T03:10:03.817Z,28.00
2023-02-12T03:12:48.857Z,26.90
2023-02-12T03:15:22.750Z,25.93
2023-02-12T03:17:50.729Z,27.23
2023-02-12T03:20:30.928Z,27.73
2023-02-12T03:23:20.986Z,26.33
2023-02-12T03:25:54.405Z,26.53
2023-02-12T03:28:30.963Z,26.83
2023-02-12T03:31:23.734Z,27.00
2023-02-12T03:34:12.991Z,24.57
2023-02-12T03:37:03.410Z,28.20
2023-02-12T03:39:49.526Z,27.17
2023-02-12T03:42:36.498Z,27.63
2023-02-12T03:45:21.692Z,26.77
2023-02-12T03:48:02.681Z,26.60
2023-02-12T03:50:50.572Z,25.53
2023-02-12T03:53:17.298Z,26.97
2023-02-12T03:55:47.225Z,26.90
2023-02-12T03:58:20.396Z,26.23
2023-02-12T04:00:47.533Z,26.33
2023-02-12T04:03:14.277Z,28.07
2023-02-12T04:05:40.935Z,27.43
2023-02-12T04:08:10.943Z,26.47
2023-02-12T04:10:37.541Z,27.60
2023-02-12T04:13:10.616Z,25.27
2023-02-12T04:15:42.762Z,26.53
2023-02-12T04:18:40.648Z,26.30
2023-02-12T04:21:18.862Z,26.47
2023-02-12T04:23:55.278Z,27.63
2023-02-12T04:26:39.351Z,26.00
2023-02-12T04:29:20.563Z,28.20
2023-02-12T04:32:20.313Z,27.27
2023-02-12T04:35:17.627Z,28.43
2023-02-12T04:37:50.125Z,26.30
2023-02-12T04:40:19.697Z,29.37
2023-02-12T04:42:52.020Z,28.37
2023-02-12T04:45:27.989Z,27.53
2023-02-12T04:47:54.710Z,27.73
2023-02-12T04:50:21.825Z,29.03
2023-02-12T04:52:48.593Z,29.23
2023-02-12T04:55:15.562Z,26.73
2023-02-12T04:57:42.257Z,27.67
2023-02-12T05:00:12.416Z,26.20
2023-02-12T05:02:39.520Z,27.07
2023-02-12T05:05:06.819Z,26.47
2023-02-12T05:07:33.495Z,25.87
2023-02-12T05:10:00.299Z,26.90
2023-02-12T05:12:26.990Z,27.40
2023-02-12T05:14:53.685Z,27.23
2023-02-12T05:17:23.052Z,26.50
2023-02-12T05:19:49.749Z,26.50
2023-02-12T05:22:16.711Z,27.77
2023-02-12T05:24:43.631Z,26.80
2023-02-12T05:27:10.360Z,27.83
2023-02-12T05:29:37.146Z,26.40
2023-02-12T05:32:04.165Z,24.87
2023-02-12T05:34:30.987Z,25.43
2023-02-12T05:36:57.646Z,26.13
2023-02-12T05:39:24.308Z,25.50
2023-02-12T05:41:50.990Z,25.73
2023-02-12T05:44:17.697Z,25.77
2023-02-12T05:46:44.465Z,26.23
2023-02-12T05:49:11.425Z,25.70
2023-02-12T05:51:38.597Z,26.27
2023-02-12T05:54:06.661Z,25.83
2023-02-12T05:56:36.839Z,26.17
2023-02-12T05:59:07.514Z,26.17
2023-02-12T06:01:36.729Z,25.57
2023-02-12T06:04:06.011Z,25.60
2023-02-12T06:06:33.656Z,26.10
2023-02-12T06:09:00.969Z,25.37
2023-02-12T06:11:28.090Z,26.67
2023-02-12T06:13:54.764Z,24.57
2023-02-12T06:16:25.202Z,25.83
2023-02-12T06:18:52.758Z,25.80
2023-02-12T06:21:21.324Z,24.93
2023-02-12T06:23:49.518Z,26.00
2023-02-12T06:26:16.672Z,24.87
2023-02-12T06:28:43.392Z,27.57
2023-02-12T06:31:37.258Z,25.13
2023-02-12T06:34:06.591Z,27.90
2023-02-12T06:36:33.473Z,27.60
2023-02-12T06:39:04.353Z,28.27
2023-02-12T06:41:31.163Z,27.87
2023-02-12T06:43:57.988Z,27.07
2023-02-12T06:46:25.106Z,26.80
2023-02-12T06:48:56.498Z,26.67
2023-02-12T06:51:23.934Z,29.63
2023-02-12T06:53:52.219Z,27.03
2023-02-12T06:56:20.628Z,27.07
2023-02-12T06:58:52.320Z,28.07
2023-02-12T07:01:21.900Z,26.40
2023-02-12T07:03:50.221Z,27.20
2023-02-12T07:06:17.551Z,26.87
2023-02-12T07:08:44.536Z,26.37
2023-02-12T07:11:11.605Z,28.43
2023-02-12T07:13:40.289Z,25.87
2023-02-12T07:16:09.206Z,27.30
2023-02-12T07:18:36.898Z,26.53
2023-02-12T07:21:05.517Z,24.97
2023-02-12T07:23:32.986Z,28.70
2023-02-12T07:26:02.288Z,28.70
2023-02-12T07:28:29.280Z,29.40
2023-02-12T07:30:56.127Z,26.60
2023-02-12T07:33:22.810Z,25.83
2023-02-12T07:35:49.461Z,26.37
2023-02-12T07:38:16.162Z,26.23
2023-02-12T07:40:42.915Z,25.80
2023-02-12T07:43:09.573Z,27.83
2023-02-12T07:45:36.353Z,26.87
2023-02-12T07:48:03.547Z,27.30
2023-02-12T07:50:30.299Z,28.23
2023-02-12T07:52:56.976Z,27.00
2023-02-12T07:55:23.753Z,26.80
2023-02-12T07:57:50.432Z,25.57
2023-02-12T08:00:17.543Z,27.23
2023-02-12T08:02:44.261Z,26.03
2023-02-12T08:05:11.024Z,26.60
2023-02-12T08:07:37.778Z,26.07
2023-02-12T08:10:04.893Z,26.13
2023-02-12T08:12:31.537Z,27.20
2023-02-12T08:14:58.379Z,27.53
2023-02-12T08:17:25.116Z,24.77
2023-02-12T08:19:51.756Z,28.67
2023-02-12T08:22:18.950Z,28.27
2023-02-12T08:24:45.624Z,27.53
2023-02-12T08:27:12.298Z,26.90
2023-02-12T08:29:38.976Z,27.47
2023-02-12T08:32:07.109Z,26.70
2023-02-12T08:34:35.213Z,25.93
2023-02-12T08:37:04.144Z,27.60
2023-02-12T08:39:30.930Z,27.77
2023-02-12T08:41:59.031Z,27.43
2023-02-12T08:44:25.864Z,28.47
2023-02-12T08:46:53.633Z,28.53
2023-02-12T08:49:23.019Z,28.77
2023-02-12T08:51:52.156Z,28.37
2023-02-12T08:54:25.273Z,27.23
2023-02-12T08:56:56.709Z,28.10
2023-02-12T08:59:23.445Z,28.43
2023-02-12T09:01:52.020Z,26.93
2023-02-12T09:04:24.578Z,28.37
2023-02-12T09:06:51.926Z,28.53
2023-02-12T09:09:19.838Z,27.87
2023-02-12T09:11:47.438Z,30.10
2023-02-12T09:14:16.108Z,29.67
2023-02-12T09:16:42.955Z,29.43
2023-02-12T09:19:12.951Z,28.83
2023-02-12T09:21:39.671Z,29.90
2023-02-12T09:24:06.501Z,29.00
2023-02-12T09:26:33.201Z,31.70
2023-02-12T09:29:02.738Z,31.60
2023-02-12T09:31:31.680Z,31.17
2023-02-12T09:34:01.738Z,30.77
2023-02-12T09:36:29.286Z,32.33
2023-02-12T09:38:57.339Z,31.33
2023-02-12T09:41:33.156Z,32.20
2023-02-12T09:44:22.590Z,33.47
2023-02-12T09:46:59.618Z,33.57
2023-02-12T09:49:56.217Z,33.87
2023-02-12T09:52:27.072Z,34.47
2023-02-12T09:54:54.149Z,33.93
2023-02-12T09:57:38.987Z,34.90
2023-02-12T10:00:07.340Z,33.83
2023-02-12T10:02:37.656Z,32.13
2023-02-12T10:05:06.637Z,31.40
2023-02-12T10:07:54.840Z,30.77
2023-02-12T10:10:50.536Z,31.57
2023-02-12T10:13:29.467Z,31.67
2023-02-12T10:16:24.435Z,29.53
2023-02-12T10:19:12.335Z,31.33
2023-02-12T10:21:55.434Z,30.37
2023-02-12T10:24:37.916Z,29.30
2023-02-12T10:27:37.051Z,28.73
2023-02-12T10:30:16.816Z,29.93
2023-02-12T10:32:47.665Z,27.83
2023-02-12T10:35:16.509Z,29.73
2023-02-12T10:37:52.595Z,27.57
2023-02-12T10:40:29.899Z,29.03
2023-02-12T10:42:57.987Z,28.43
2023-02-12T10:45:34.439Z,27.67
2023-02-12T10:48:04.451Z,27.23
2023-02-12T10:51:07.617Z,28.43
2023-02-12T10:53:41.099Z,28.53
2023-02-12T10:56:10.824Z,28.30
2023-02-12T10:58:50.163Z,27.20
2023-02-12T11:01:26.369Z,26.80
2023-02-12T11:03:55.118Z,25.13
2023-02-12T11:06:25.822Z,24.67
2023-02-12T11:08:53.681Z,24.80
2023-02-12T11:11:31.074Z,23.97
2023-02-12T11:14:03.181Z,24.63
2023-02-12T11:16:50.865Z,24.17
2023-02-12T11:19:30.218Z,23.03
2023-02-12T11:22:18.815Z,21.63
2023-02-12T11:24:46.965Z,19.57
2023-02-12T11:27:23.947Z,22.40
2023-02-12T11:30:21.978Z,19.57
2023-02-12T11:32:52.260Z,20.27
2023-02-12T11:35:25.712Z,17.13
2023-02-12T11:37:55.812Z,18.03
2023-02-12T11:40:28.315Z,17.30
2023-02-12T11:43:02.098Z,17.37
2023-02-12T11:45:45.456Z,18.37
2023-02-12T11:48:29.342Z,17.03
2023-02-12T11:50:58.568Z,17.30
2023-02-12T11:53:36.510Z,15.80
2023-02-12T11:56:07.628Z,16.10
2023-02-12T11:58:34.405Z,15.43
2023-02-12T12:01:25.842Z,16.00
2023-02-12T12:04:14.546Z,14.37
2023-02-12T12:07:14.800Z,15.83
2023-02-12T12:10:03.523Z,16.07
2023-02-12T12:12:36.165Z,19.13
2023-02-12T12:15:49.346Z,14.53
2023-02-12T12:18:40.385Z,14.80
2023-02-12T12:21:18.962Z,14.73
2023-02-12T12:24:10.106Z,15.07
2023-02-12T12:26:40.409Z,14.30
2023-02-12T12:29:45.578Z,14.93
2023-02-12T12:32:16.286Z,14.57
2023-02-12T12:34:43.059Z,14.47
2023-02-12T12:37:34.996Z,13.90
2023-02-12T12:40:30.706Z,14.73
2023-02-12T12:43:03.227Z,13.70
2023-02-12T12:45:44.907Z,14.93
2023-02-12T12:48:26.907Z,14.13
2023-02-12T12:51:08.399Z,13.30
2023-02-12T12:54:02.995Z,14.97
2023-02-12T12:56:44.922Z,14.63
2023-02-12T12:59:17.538Z,14.90
2023-02-12T13:02:34.821Z,15.33
2023-02-12T13:05:10.350Z,15.57
2023-02-12T13:07:45.775Z,15.30
2023-02-12T13:10:12.982Z,13.87
2023-02-12T13:12:47.459Z,14.60
2023-02-12T13:15:29.724Z,14.57
2023-02-12T13:18:04.182Z,14.37
2023-02-12T13:20:49.726Z,14.27
2023-02-12T13:23:39.581Z,13.63
2023-02-12T13:26:15.142Z,14.17
2023-02-12T13:28:50.787Z,14.50
2023-02-12T13:31:32.900Z,14.37
2023-02-12T13:34:04.698Z,15.60
2023-02-12T13:36:33.047Z,15.73
2023-02-12T13:39:34.191Z,14.93
2023-02-12T13:42:30.703Z,15.77
2023-02-12T13:45:15.080Z,15.90
2023-02-12T13:47:53.468Z,15.30
2023-02-12T13:50:38.173Z,17.23
2023-02-12T13:53:28.146Z,15.60
2023-02-12T13:56:19.790Z,15.23
2023-02-12T13:58:50.163Z,15.67
2023-02-12T14:01:36.493Z,16.10
2023-02-12T14:04:21.371Z,15.77
2023-02-12T14:07:06.535Z,14.50
2023-02-12T14:10:06.755Z,14.57
2023-02-12T14:12:40.919Z,16.70
2023-02-12T14:15:35.023Z,16.10
2023-02-12T14:18:06.637Z,15.30
2023-02-12T14:20:35.700Z,17.27
2023-02-12T14:23:02.421Z,15.30
2023-02-12T14:25:46.030Z,17.67
2023-02-12T14:28:25.684Z,17.23
2023-02-12T14:31:23.235Z,17.00
2023-02-12T14:33:53.372Z,16.70
2023-02-12T14:36:38.928Z,15.63
2023-02-12T14:39:29.332Z,16.20
2023-02-12T14:42:16.236Z,15.90
2023-02-12T14:44:59.530Z,14.97
2023-02-12T14:47:29.171Z,14.30
2023-02-12T14:50:01.566Z,15.23
2023-02-12T14:52:33.224Z,14.93
2023-02-12T14:55:07.646Z,14.77
2023-02-12T14:57:41.079Z,14.37
2023-02-12T15:00:16.852Z,14.07
2023-02-12T15:02:52.635Z,13.80
2023-02-12T15:05:24.574Z,13.83
2023-02-12T15:08:06.865Z,15.00
2023-02-12T15:10:46.112Z,14.00
2023-02-12T15:13:39.981Z,13.40
2023-02-12T15:16:13.562Z,15.27
2023-02-12T15:19:06.956Z,15.67
2023-02-12T15:21:35.486Z,15.60
2023-02-12T15:24:02.217Z,14.50
2023-02-12T15:26:31.646Z,13.97
2023-02-12T15:28:58.452Z,13.53
2023-02-12T15:31:30.566Z,11.87
2023-02-12T15:34:00.416Z,11.47
2023-02-12T15:36:29.232Z,11.30
2023-02-12T15:39:06.328Z,10.30
2023-02-12T15:41:32.983Z,11.07
2023-02-12T15:44:18.934Z,9.27
2023-02-12T15:47:11.870Z,8.60
2023-02-12T15:49:40.044Z,9.00
2023-02-12T15:52:27.219Z,9.63
2023-02-12T15:54:54.869Z,10.60
2023-02-12T15:57:24.958Z,10.73
2023-02-12T15:59:58.868Z,10.67
2023-02-12T16:02:28.589Z,10.83
2023-02-12T16:04:56.889Z,10.90
2023-02-12T16:07:24.378Z,10.87
2023-02-12T16:09:52.490Z,11.03
2023-02-12T16:12:22.621Z,11.07
2023-02-12T16:14:54.942Z,11.07
2023-02-12T16:17:27.534Z,10.50
2023-02-12T16:20:20.228Z,9.90
2023-02-12T16:22:48.935Z,9.37
2023-02-12T16:25:23.513Z,8.37
2023-02-12T16:28:00.932Z,8.73
2023-02-12T16:30:38.783Z,8.80
2023-02-12T16:33:26.596Z,9.67
2023-02-12T16:36:05.143Z,9.10
2023-02-12T16:38:52.597Z,8.57
2023-02-12T16:41:25.779Z,8.67
2023-02-12T16:44:01.535Z,8.60
2023-02-12T16:46:45.123Z,8.77
2023-02-12T16:49:20.564Z,9.13
2023-02-12T16:51:48.383Z,9.13
2023-02-12T16:54:38.118Z,8.80
2023-02-12T16:57:04.785Z,8.93
2023-02-12T16:59:31.585Z,8.50
2023-02-12T17:02:12.779Z,9.70
2023-02-12T17:04:39.938Z,10.07
2023-02-12T17:07:20.614Z,11.30
2023-02-12T17:09:47.495Z,11.30
2023-02-12T17:12:14.506Z,11.90
2023-02-12T17:14:41.260Z,12.73
2023-02-12T17:17:08.242Z,12.27
2023-02-12T17:19:35.186Z,13.90
2023-02-12T17:22:03.571Z,13.00
2023-02-12T17:24:34.101Z,13.23
2023-02-12T17:27:01.970Z,12.73
2023-02-12T17:29:30.684Z,12.00
2023-02-12T17:31:57.599Z,12.17
2023-02-12T17:34:24.873Z,13.13
2023-02-12T17:36:52.465Z,12.70
2023-02-12T17:39:19.950Z,12.37
2023-02-12T17:41:47.036Z,13.17
2023-02-12T17:44:15.051Z,12.03
2023-02-12T17:46:42.073Z,13.07
2023-02-12T17:49:09.048Z,13.07
2023-02-12T17:51:35.808Z,12.30
2023-02-12T17:54:02.541Z,11.93
2023-02-12T17:56:29.348Z,13.20
2023-02-12T17:58:56.162Z,12.10
2023-02-12T18:01:24.221Z,11.80
2023-02-12T18:03:54.588Z,12.20
2023-02-12T18:06:24.523Z,11.97
2023-02-12T18:08:51.534Z,12.03
2023-02-12T18:11:21.665Z,12.90
2023-02-12T18:13:51.186Z,12.00
2023-02-12T18:16:17.888Z,12.43
2023-02-12T18:18:44.705Z,12.17
2023-02-12T18:21:13.504Z,12.70
2023-02-12T18:23:40.534Z,11.33
2023-02-12T18:26:09.696Z,11.50
2023-02-12T18:28:36.815Z,12.67
2023-02-12T18:31:04.226Z,12.00
2023-02-12T18:33:31.508Z,12.07
2023-02-12T18:36:00.852Z,11.67
2023-02-12T18:38:27.865Z,11.93
2023-02-12T18:40:55.002Z,12.30
2023-02-12T18:43:24.381Z,12.57
2023-02-12T18:45:51.482Z,11.93
2023-02-12T18:48:18.337Z,11.87
2023-02-12T18:50:45.015Z,10.30
2023-02-12T18:53:11.688Z,9.53
2023-02-12T18:55:39.576Z,9.00
2023-02-12T18:58:06.274Z,9.83
2023-02-12T19:00:33.135Z,10.00
2023-02-12T19:02:59.918Z,9.37
2023-02-12T19:05:26.741Z,8.90
2023-02-12T19:07:54.113Z,8.63
2023-02-12T19:10:21.972Z,8.97
2023-02-12T19:12:49.092Z,8.63
2023-02-12T19:15:16.649Z,8.50
2023-02-12T19:17:43.532Z,8.47
2023-02-12T19:20:10.721Z,8.57
2023-02-12T19:22:38.397Z,7.93
2023-02-12T19:25:05.510Z,8.60
2023-02-12T19:27:32.583Z,8.30
2023-02-12T19:30:00.960Z,8.20
2023-02-12T19:32:28.009Z,8.43
2023-02-12T19:34:54.872Z,8.53
2023-02-12T19:37:21.562Z,7.50
2023-02-12T19:39:48.293Z,7.70
2023-02-12T19:42:17.189Z,8.17
2023-02-12T19:44:44.544Z,8.23
2023-02-12T19:47:11.326Z,8.07
2023-02-12T19:49:38.642Z,8.10
2023-02-12T19:52:05.513Z,8.40
2023-02-12T19:54:32.366Z,7.80
2023-02-12T19:56:59.166Z,8.20
2023-02-12T19:59:27.091Z,7.30
2023-02-12T20:01:54.405Z,7.53
2023-02-12T20:04:23.377Z,7.10
2023-02-12T20:06:53.488Z,8.87
2023-02-12T20:09:21.971Z,7.80
2023-02-12T20:11:49.426Z,7.93
2023-02-12T20:14:16.910Z,7.47
2023-02-12T20:16:46.540Z,7.47
2023-02-12T20:19:17.636Z,8.07
2023-02-12T20:21:45.079Z,7.37
2023-02-12T20:24:11.815Z,8.00
2023-02-12T20:26:39.008Z,7.80
2023-02-12T20:29:05.899Z,7.80
2023-02-12T20:31:35.850Z,7.33
2023-02-12T20:34:05.785Z,7.57
2023-02-12T20:36:35.344Z,7.43
2023-02-12T20:39:02.422Z,7.57
2023-02-12T20:41:29.198Z,7.57
2023-02-12T20:43:58.981Z,7.23
2023-02-12T20:46:26.758Z,7.50
2023-02-12T20:48:54.352Z,8.07
2023-02-12T20:51:23.279Z,7.90
2023-02-12T20:53:50.709Z,7.63
2023-02-12T20:56:21.565Z,7.87
2023-02-12T20:58:48.698Z,7.47
2023-02-12T21:01:22.283Z,7.73
2023-02-12T21:03:51.235Z,7.47
2023-02-12T21:06:18.869Z,7.40
2023-02-12T21:08:46.270Z,8.00
2023-02-12T21:11:16.163Z,8.23
2023-02-12T21:13:58.499Z,8.00
2023-02-12T21:16:36.056Z,7.57
2023-02-12T21:19:03.213Z,8.30
2023-02-12T21:21:32.586Z,7.43
2023-02-12T21:24:00.642Z,7.50
2023-02-12T21:26:29.394Z,7.87
2023-02-12T21:28:57.900Z,7.37
2023-02-12T21:31:33.511Z,8.00
2023-02-12T21:34:02.118Z,7.53
2023-02-12T21:36:32.022Z,8.00
2023-02-12T21:38:59.135Z,7.07
2023-02-12T21:41:29.405Z,6.97
2023-02-12T21:44:00.400Z,7.07
2023-02-12T21:46:28.038Z,7.13
2023-02-12T21:48:55.751Z,6.67
2023-02-12T21:51:32.410Z,7.07
2023-02-12T21:54:01.617Z,6.70
2023-02-12T21:56:29.348Z,7.20
2023-02-12T21:58:57.630Z,6.50
2023-02-12T22:01:29.910Z,7.17
2023-02-12T22:03:56.670Z,7.40
2023-02-12T22:06:24.959Z,7.03
2023-02-12T22:08:53.551Z,7.70
2023-02-12T22:11:21.910Z,7.20
2023-02-12T22:13:49.769Z,7.30
2023-02-12T22:16:19.735Z,7.60
2023-02-12T22:18:48.162Z,7.47
2023-02-12T22:21:16.956Z,7.97
2023-02-12T22:23:44.930Z,7.63
2023-02-12T22:26:17.690Z,8.30
2023-02-12T22:28:50.662Z,7.70
2023-02-12T22:31:21.845Z,8.90
2023-02-12T22:33:50.409Z,8.50
2023-02-12T22:36:26.414Z,8.37
2023-02-12T22:38:55.050Z,9.40
2023-02-12T22:41:22.242Z,8.30
2023-02-12T22:43:49.474Z,7.80
2023-02-12T22:46:16.914Z,7.80
2023-02-12T22:48:44.357Z,8.60
2023-02-12T22:51:32.040Z,9.13
2023-02-12T22:53:59.044Z,8.50
2023-02-12T22:56:27.063Z,8.90
2023-02-12T22:58:56.028Z,8.60
2023-02-12T23:01:23.851Z,8.67
2023-02-12T23:03:51.396Z,8.67
2023-02-12T23:06:20.757Z,8.93
2023-02-12T23:08:55.753Z,8.87
2023-02-12T23:11:24.424Z,9.10
2023-02-12T23:13:51.813Z,8.50
2023-02-12T23:16:18.546Z,8.07
2023-02-12T23:18:45.338Z,8.10
2023-02-12T23:21:12.566Z,8.87
2023-02-12T23:23:39.253Z,8.63
2023-02-12T23:26:06.440Z,9.47
2023-02-12T23:28:33.196Z,8.77
2023-02-12T23:31:00.334Z,9.67
2023-02-12T23:33:27.256Z,8.83
2023-02-12T23:35:53.918Z,9.73
2023-02-12T23:38:20.733Z,9.63
2023-02-12T23:40:48.269Z,10.13
2023-02-12T23:43:14.978Z,9.90
2023-02-12T23:45:44.407Z,10.80
2023-02-12T23:48:12.045Z,10.23
2023-02-12T23:50:39.260Z,10.20
2023-02-12T23:53:06.137Z,10.40
2023-02-12T23:55:36.276Z,10.33
2023-02-12T23:58:03.874Z,10.70
